Time;durP1;ratioP1;P1;durP2;ratioP2;P2;SDS_P1;SDS_P2;PMS_P1;PMS_P2;Temp;Humidity;BMP_temperature;BMP_pressure;BME280_temperature;BME280_humidity;BME280_pressure;Samples;Min_cycle;Max_cycle;Signal;HPM_P1;HPM_P2
2022/12/12 00:02:17;;;;;;;16.05;9.50;;;6.40;62.40;;;;;;5055083;28;20139;-84
2022/12/12 00:04:42;;;;;;;17.95;10.82;;;6.30;62.20;;;;;;5046070;28;20037;-81
2022/12/12 00:07:08;;;;;;;14.13;9.20;;;6.00;63.30;;;;;;5049502;28;20033;-86
2022/12/12 00:09:34;;;;;;;16.80;9.35;;;6.00;63.10;;;;;;5046592;28;20053;-79
2022/12/12 00:11:59;;;;;;;15.07;9.50;;;6.10;63.40;;;;;;5057285;28;20029;-81
2022/12/12 00:14:25;;;;;;;15.45;8.85;;;6.20;62.80;;;;;;5048725;28;20427;-81
2022/12/12 00:16:50;;;;;;;18.00;10.05;;;6.20;63.40;;;;;;5048367;28;20539;-81
2022/12/12 00:19:16;;;;;;;16.38;9.35;;;6.00;63.40;;;;;;5035285;28;20389;-81
2022/12/12 00:21:42;;;;;;;15.63;9.40;;;6.00;63.20;;;;;;5054543;28;20033;-82
2022/12/12 00:24:08;;;;;;;16.08;9.73;;;5.80;63.10;;;;;;5050239;28;20108;-81
2022/12/12 00:26:34;;;;;;;14.90;8.75;;;6.00;63.50;;;;;;5035596;28;20038;-82
2022/12/12 00:29:01;;;;;;;13.85;8.88;;;6.10;63.10;;;;;;5035369;28;20125;-82
2022/12/12 00:31:28;;;;;;;15.07;9.38;;;5.90;63.10;;;;;;5053991;28;20115;-81
2022/12/12 00:33:56;;;;;;;16.10;9.88;;;5.70;64.90;;;;;;5055034;28;20056;-91
2022/12/12 00:36:24;;;;;;;16.67;9.68;;;5.80;64.00;;;;;;5056363;28;20071;-81
2022/12/12 00:38:51;;;;;;;15.55;9.27;;;5.90;64.20;;;;;;5055551;28;20055;-81
2022/12/12 00:41:17;;;;;;;21.40;11.57;;;6.20;63.50;;;;;;5054884;28;20104;-81
2022/12/12 00:43:43;;;;;;;15.38;9.65;;;6.30;62.60;;;;;;5075873;28;20029;-80
2022/12/12 00:46:16;;;;;;;16.90;9.52;;;6.30;63.70;;;;;;5074893;28;20395;-81
2022/12/12 00:49:08;;;;;;;15.07;9.18;;;6.30;62.00;;;;;;5086058;27;1359517;-84
2022/12/12 00:51:34;;;;;;;14.50;9.38;;;5.90;62.50;;;;;;5093558;28;20032;-84
2022/12/12 00:54:00;;;;;;;14.75;8.95;;;5.80;63.50;;;;;;5093032;28;20028;-81
2022/12/12 00:56:27;;;;;;;15.73;9.82;;;6.00;62.60;;;;;;5111239;28;20035;-82
2022/12/12 00:58:53;;;;;;;15.88;8.85;;;5.90;63.30;;;;;;5093194;28;20037;-80
2022/12/12 01:01:24;;;;;;;16.73;9.73;;;5.80;63.40;;;;;;5092968;28;20024;-80
2022/12/12 01:03:51;;;;;;;15.07;9.30;;;5.70;62.90;;;;;;5096366;28;20028;-81
2022/12/12 01:06:17;;;;;;;15.75;9.60;;;5.70;63.80;;;;;;5072834;28;20031;-80
2022/12/12 01:08:42;;;;;;;15.00;9.25;;;5.90;63.00;;;;;;5104761;28;20044;-82
2022/12/12 01:11:10;;;;;;;16.45;9.75;;;6.00;62.30;;;;;;5074809;28;20031;-80
2022/12/12 01:13:36;;;;;;;17.80;10.25;;;5.80;63.00;;;;;;5072645;28;20043;-82
2022/12/12 01:16:03;;;;;;;15.73;9.30;;;5.90;62.80;;;;;;5089894;28;20032;-79
2022/12/12 01:18:29;;;;;;;16.63;9.63;;;5.90;62.90;;;;;;5073226;28;20028;-80
2022/12/12 01:20:55;;;;;;;15.32;9.23;;;6.00;62.20;;;;;;5087309;28;20024;-83
2022/12/12 01:23:20;;;;;;;13.80;8.35;;;5.80;62.80;;;;;;5088693;28;20038;-80
2022/12/12 01:25:46;;;;;;;17.17;9.52;;;5.80;63.10;;;;;;5072233;28;20023;-81
2022/12/12 01:28:12;;;;;;;16.33;10.07;;;5.60;63.60;;;;;;5061376;28;20125;-86
2022/12/12 01:30:37;;;;;;;16.05;9.48;;;5.80;62.90;;;;;;5071776;28;20058;-81
2022/12/12 01:33:03;;;;;;;16.77;9.55;;;5.90;62.80;;;;;;5071689;28;20069;-80
2022/12/12 01:35:31;;;;;;;14.35;9.68;;;6.00;61.90;;;;;;5072396;28;20029;-81
2022/12/12 01:37:57;;;;;;;14.43;8.77;;;5.80;61.70;;;;;;5073804;28;20104;-80
2022/12/12 01:40:25;;;;;;;14.65;9.20;;;5.70;62.90;;;;;;5058973;28;20115;-80
2022/12/12 01:42:51;;;;;;;16.00;9.35;;;5.60;63.20;;;;;;5069377;28;20077;-80
2022/12/12 01:46:14;;;;;;;18.00;9.73;;;5.60;63.10;;;;;;5068803;28;20025;-82
2022/12/12 01:48:46;;;;;;;16.75;9.95;;;5.80;62.70;;;;;;5055926;28;20125;-84
2022/12/12 01:51:15;;;;;;;16.25;9.05;;;6.10;62.50;;;;;;5068862;28;20029;-80
2022/12/12 01:53:42;;;;;;;15.98;9.00;;;6.10;61.30;;;;;;5069629;28;20040;-81
2022/12/12 01:56:12;;;;;;;16.35;9.20;;;5.70;62.50;;;;;;5052030;28;20021;-81
2022/12/12 01:58:43;;;;;;;13.32;8.88;;;5.50;63.70;;;;;;5066532;28;20476;-80
2022/12/12 02:01:10;;;;;;;17.38;9.50;;;5.80;62.60;;;;;;5058471;28;20055;-82
2022/12/12 02:03:37;;;;;;;16.38;9.65;;;6.10;61.40;;;;;;5057813;28;20395;-81
2022/12/12 02:06:07;;;;;;;15.63;9.02;;;6.10;61.20;;;;;;5048777;28;20124;-81
2022/12/12 02:08:33;;;;;;;15.30;8.60;;;6.10;61.30;;;;;;5052991;28;20047;-85
2022/12/12 02:10:59;;;;;;;15.20;9.18;;;6.10;60.50;;;;;;5075461;28;20028;-81
2022/12/12 02:13:28;;;;;;;17.70;9.77;;;5.80;61.60;;;;;;5075114;28;20036;-80
2022/12/12 02:16:00;;;;;;;17.27;9.95;;;5.50;61.70;;;;;;5075364;28;20102;-82
2022/12/12 02:18:40;;;;;;;16.52;9.18;;;5.80;62.60;;;;;;5046850;28;20039;-80
2022/12/12 02:21:14;;;;;;;15.43;9.10;;;5.90;61.50;;;;;;5058026;28;20082;-82
2022/12/12 02:24:03;;;;;;;16.75;9.70;;;6.00;60.70;;;;;;5075027;28;20099;-82
2022/12/12 02:26:53;;;;;;;14.02;8.82;;;5.80;61.10;;;;;;5055922;28;20471;-81
2022/12/12 02:29:52;;;;;;;17.25;9.48;;;5.40;61.80;;;;;;5056650;28;20036;-81
2022/12/12 02:32:41;;;;;;;16.88;9.38;;;5.20;62.90;;;;;;5037755;28;20395;-80
2022/12/12 02:35:18;;;;;;;17.10;9.70;;;5.30;62.40;;;;;;5040115;28;20029;-81
2022/12/12 02:38:20;;;;;;;16.70;9.30;;;5.60;62.40;;;;;;5048531;28;20017;-81
2022/12/12 02:40:49;;;;;;;16.80;9.07;;;5.80;61.00;;;;;;5037974;28;20076;-80
2022/12/12 02:43:38;;;;;;;17.33;9.85;;;5.60;61.30;;;;;;5044809;28;20028;-83
2022/12/12 02:46:11;;;;;;;17.10;9.18;;;5.20;61.10;;;;;;5056752;28;20387;-81
2022/12/12 02:48:42;;;;;;;17.48;9.48;;;5.00;62.20;;;;;;5057136;28;20056;-81
2022/12/12 02:51:12;;;;;;;17.25;9.85;;;5.40;62.40;;;;;;5053539;28;20024;-81
2022/12/12 02:53:38;;;;;;;17.08;10.13;;;5.50;62.20;;;;;;5055521;28;20117;-82
2022/12/12 02:56:24;;;;;;;17.73;10.35;;;5.50;61.20;;;;;;5055045;28;20107;-82
2022/12/12 02:58:49;;;;;;;17.40;9.30;;;5.60;60.70;;;;;;5057999;28;20039;-81
2022/12/12 03:01:22;;;;;;;15.85;9.15;;;5.50;60.90;;;;;;5046002;28;20021;-80
2022/12/12 03:10:25;;;;;;;16.88;9.93;;;4.90;62.30;;;;;;5074974;28;20035;-82
2022/12/12 03:13:03;;;;;;;16.58;9.38;;;4.80;63.10;;;;;;5043388;28;20029;-81
2022/12/12 03:15:47;;;;;;;15.70;9.48;;;5.00;62.00;;;;;;5065352;28;20361;-83
2022/12/12 03:18:58;;;;;;;15.48;8.93;;;5.10;61.00;;;;;;5056947;28;20020;-82
2022/12/12 03:21:50;;;;;;;14.18;8.45;;;5.10;61.60;;;;;;4974185;28;20093;-81
2022/12/12 03:24:22;;;;;;;15.68;9.38;;;5.10;60.60;;;;;;4974182;28;20075;-80
2022/12/12 03:26:55;;;;;;;15.85;9.25;;;4.80;61.70;;;;;;4973966;28;20047;-80
2022/12/12 03:29:28;;;;;;;15.55;8.82;;;4.80;61.10;;;;;;4973859;28;20046;-85
2022/12/12 03:31:59;;;;;;;14.07;8.77;;;4.70;61.20;;;;;;4973862;28;20034;-83
2022/12/12 03:34:34;;;;;;;17.02;9.13;;;4.80;61.70;;;;;;4957779;28;20490;-86
2022/12/12 03:37:12;;;;;;;17.55;9.55;;;4.90;60.80;;;;;;4973652;28;20065;-80
2022/12/12 03:39:55;;;;;;;15.95;9.25;;;4.60;61.50;;;;;;4973775;28;20101;-78
2022/12/12 03:42:45;;;;;;;16.20;8.95;;;4.90;60.50;;;;;;4973624;28;20030;-81
2022/12/12 03:45:26;;;;;;;17.10;9.20;;;4.70;60.50;;;;;;4974004;28;20050;-82
2022/12/12 03:47:57;;;;;;;16.45;9.40;;;4.80;60.40;;;;;;4957352;28;20051;-82
2022/12/12 03:50:42;;;;;;;17.17;9.27;;;4.30;61.30;;;;;;4957543;28;20127;-81
2022/12/12 03:53:22;;;;;;;16.02;8.55;;;4.20;61.10;;;;;;4973738;28;20059;-83
2022/12/12 03:55:56;;;;;;;15.20;8.63;;;3.90;61.30;;;;;;5011229;28;20037;-83
2022/12/12 03:58:37;;;;;;;17.60;9.80;;;4.00;61.30;;;;;;5036291;28;20033;-81
2022/12/12 04:01:07;;;;;;;17.55;9.63;;;4.10;60.90;;;;;;5070447;28;20028;-84
2022/12/12 04:14:40;;;;;;;17.77;10.65;;;4.10;60.30;;;;;;5132025;27;20371;-84
2022/12/12 04:17:10;;;;;;;18.73;9.38;;;4.70;58.30;;;;;;5126935;28;20019;-83
2022/12/12 04:29:00;;;;;;;16.52;8.93;;;5.30;57.00;;;;;;5105253;22;20114;-81
2022/12/12 04:31:30;;;;;;;16.73;9.77;;;5.10;57.40;;;;;;5071899;28;20085;-78
2022/12/12 04:34:01;;;;;;;17.85;9.38;;;5.00;57.60;;;;;;5052463;28;20067;-82
2022/12/12 04:36:27;;;;;;;19.15;10.25;;;5.00;57.80;;;;;;5070330;28;20021;-82
2022/12/12 04:38:55;;;;;;;17.83;10.13;;;5.00;57.80;;;;;;5052622;28;20095;-81
2022/12/12 04:41:22;;;;;;;18.08;9.65;;;5.10;57.80;;;;;;5052366;28;20025;-84
2022/12/12 04:43:49;;;;;;;20.13;10.63;;;5.20;56.80;;;;;;5070388;28;20026;-81
2022/12/12 04:46:20;;;;;;;17.35;9.60;;;5.20;56.70;;;;;;5051927;28;20134;-83
2022/12/12 04:48:52;;;;;;;17.73;9.82;;;5.10;57.30;;;;;;5051849;28;20029;-86
2022/12/12 04:51:32;;;;;;;17.02;9.38;;;4.80;57.40;;;;;;5041377;28;20025;-83
2022/12/12 04:54:18;;;;;;;;;;;4.40;58.30;;;;;;5053040;28;20036;-89
2022/12/12 04:56:47;;;;;;;17.17;9.95;;;4.50;59.40;;;;;;5050273;28;20247;-84
2022/12/12 04:59:13;;;;;;;16.20;8.68;;;4.80;58.20;;;;;;5049782;28;20025;-82
2022/12/12 05:02:02;;;;;;;20.50;10.82;;;4.80;58.60;;;;;;5032964;28;20024;-81
2022/12/12 05:05:06;;;;;;;16.23;8.33;;;4.60;58.80;;;;;;5047792;28;20139;-82
2022/12/12 05:07:37;;;;;;;17.13;9.43;;;4.60;58.30;;;;;;5050205;28;20037;-80
2022/12/12 05:10:06;;;;;;;19.08;10.18;;;4.70;58.20;;;;;;5051717;28;20025;-80
2022/12/12 05:12:58;;;;;;;17.52;10.32;;;4.70;58.10;;;;;;5053858;28;20112;-84
2022/12/12 05:15:26;;;;;;;16.83;10.05;;;4.50;58.40;;;;;;5035388;28;20079;-85
2022/12/12 05:18:01;;;;;;;15.85;8.57;;;4.40;59.20;;;;;;5063707;28;20020;-82
2022/12/12 05:21:03;;;;;;;18.85;9.70;;;4.40;57.70;;;;;;5036172;28;20018;-88
2022/12/12 05:23:41;;;;;;;17.73;8.90;;;4.20;57.60;;;;;;5036152;28;20037;-89
2022/12/12 05:26:08;;;;;;;15.40;8.52;;;4.10;57.90;;;;;;5036251;28;20048;-87
2022/12/12 05:28:43;;;;;;;16.77;9.57;;;3.70;58.60;;;;;;5015799;28;20084;-79
2022/12/12 05:31:11;;;;;;;20.48;10.35;;;3.80;59.10;;;;;;5014961;28;20061;-82
2022/12/12 05:33:40;;;;;;;18.08;9.77;;;4.10;57.70;;;;;;5045069;28;20025;-84
2022/12/12 05:36:18;;;;;;;21.35;10.55;;;4.20;57.40;;;;;;5054599;28;20025;-84
2022/12/12 05:38:47;;;;;;;15.73;9.02;;;4.20;58.10;;;;;;5034987;28;20382;-83
2022/12/12 05:41:15;;;;;;;16.42;9.63;;;4.30;57.40;;;;;;5032217;28;20037;-80
2022/12/12 05:44:04;;;;;;;17.98;9.52;;;4.60;56.80;;;;;;5024246;28;20061;-82
2022/12/12 05:46:31;;;;;;;17.25;9.98;;;4.80;56.00;;;;;;5016126;28;20082;-83
2022/12/12 05:48:57;;;;;;;20.55;10.88;;;4.90;56.00;;;;;;5019598;28;20083;-83
2022/12/12 05:54:14;;;;;;;17.58;10.10;;;5.30;55.20;;;;;;5013829;28;20030;-82
2022/12/12 05:56:42;;;;;;;16.90;9.40;;;5.30;54.90;;;;;;5013883;28;20114;-82
2022/12/12 06:00:04;;;;;;;17.45;9.23;;;5.40;53.60;;;;;;4996786;28;20168;-83
2022/12/12 06:02:29;;;;;;;17.52;9.85;;;5.30;54.50;;;;;;4997194;28;20582;-80
2022/12/12 06:05:09;;;;;;;20.00;10.30;;;5.30;54.10;;;;;;5018638;28;20030;-81
2022/12/12 06:07:38;;;;;;;18.27;9.82;;;5.10;54.50;;;;;;5025090;28;20034;-81
2022/12/12 06:10:05;;;;;;;19.38;10.63;;;5.00;54.70;;;;;;4983299;28;20035;-84
2022/12/12 06:12:30;;;;;;;19.58;10.90;;;4.70;54.90;;;;;;4979450;28;20112;-81
2022/12/12 06:15:17;;;;;;;17.30;10.43;;;4.30;57.00;;;;;;5003202;28;20180;-79
2022/12/12 06:18:16;;;;;;;19.70;9.65;;;4.60;56.40;;;;;;4978115;28;20062;-81
2022/12/12 06:20:42;;;;;;;18.83;9.82;;;4.60;56.60;;;;;;4996229;28;20023;-79
2022/12/12 06:23:07;;;;;;;19.55;10.20;;;4.70;56.00;;;;;;5005338;28;20147;-83
2022/12/12 06:25:33;;;;;;;18.48;10.20;;;4.70;55.70;;;;;;5004009;28;20533;-84
2022/12/12 06:28:36;;;;;;;19.33;10.52;;;4.70;55.20;;;;;;5010770;28;20137;-82
2022/12/12 06:31:10;;;;;;;21.90;10.80;;;4.60;56.10;;;;;;5022672;28;20044;-83
2022/12/12 06:33:42;;;;;;;28.60;13.65;;;4.60;55.50;;;;;;5034768;28;20033;-85
2022/12/12 06:36:50;;;;;;;21.08;10.80;;;4.60;56.20;;;;;;5026567;28;20479;-83
2022/12/12 06:39:38;;;;;;;19.38;10.52;;;5.00;55.70;;;;;;5030523;28;20065;-84
2022/12/12 06:42:13;;;;;;;21.67;11.40;;;5.00;54.90;;;;;;5030068;28;20609;-84
2022/12/12 06:47:33;;;;;;;21.15;10.77;;;4.40;56.20;;;;;;5053024;28;20029;-84
2022/12/12 06:50:24;;;;;;;20.35;11.18;;;4.70;55.90;;;;;;5055019;28;20032;-84
2022/12/12 06:52:53;;;;;;;19.08;10.55;;;4.90;55.40;;;;;;5036865;28;20496;-82
2022/12/12 06:55:18;;;;;;;18.30;10.60;;;4.60;55.30;;;;;;5044496;28;20017;-81
2022/12/12 06:57:47;;;;;;;19.55;10.93;;;4.60;55.80;;;;;;5052762;28;20478;-82
2022/12/12 07:00:42;;;;;;;17.33;9.95;;;4.80;55.30;;;;;;5054469;28;20104;-82
2022/12/12 07:03:11;;;;;;;20.88;11.23;;;5.20;54.30;;;;;;4988124;28;20427;-82
2022/12/12 07:05:36;;;;;;;18.77;10.75;;;5.10;54.90;;;;;;4982782;28;20450;-80
2022/12/12 07:08:03;;;;;;;18.30;10.93;;;5.40;54.00;;;;;;4992606;28;20514;-80
2022/12/12 07:10:29;;;;;;;20.27;10.85;;;5.50;54.40;;;;;;4992313;28;20026;-82
2022/12/12 07:12:58;;;;;;;19.27;10.85;;;5.50;53.40;;;;;;4992407;28;20135;-81
2022/12/12 07:15:23;;;;;;;18.88;10.48;;;5.80;53.70;;;;;;4971072;28;20019;-83
2022/12/12 07:20:57;;;;;;;18.38;9.82;;;5.50;53.60;;;;;;4992109;28;20096;-79
2022/12/12 07:23:22;;;;;;;21.08;10.10;;;5.70;53.80;;;;;;4991572;28;20128;-86
2022/12/12 07:25:48;;;;;;;20.33;10.27;;;5.90;52.70;;;;;;4981898;28;20042;-79
2022/12/12 07:28:15;;;;;;;16.67;9.32;;;5.70;53.00;;;;;;4975806;28;20084;-79
2022/12/12 07:30:43;;;;;;;20.10;12.10;;;5.50;53.00;;;;;;4989657;28;20050;-81
2022/12/12 07:33:10;;;;;;;17.23;9.55;;;5.30;53.30;;;;;;4992202;28;20042;-80
2022/12/12 07:35:36;;;;;;;19.77;10.65;;;5.00;53.40;;;;;;4985455;28;20034;-80
2022/12/12 07:38:02;;;;;;;20.98;10.73;;;4.90;53.90;;;;;;4975222;28;20438;-80
2022/12/12 07:40:28;;;;;;;19.42;10.43;;;5.20;54.00;;;;;;5010388;28;20471;-81
2022/12/12 07:42:54;;;;;;;19.85;10.75;;;5.30;53.40;;;;;;5031487;28;20044;-81
2022/12/12 07:45:20;;;;;;;17.05;9.43;;;5.10;53.90;;;;;;5053348;28;20047;-80
2022/12/12 07:47:45;;;;;;;19.27;10.27;;;5.00;53.70;;;;;;5031291;28;20029;-79
2022/12/12 07:50:12;;;;;;;19.23;9.95;;;5.30;53.20;;;;;;5015831;28;20108;-81
2022/12/12 07:52:37;;;;;;;20.08;10.25;;;5.50;52.60;;;;;;5028382;28;20033;-82
2022/12/12 07:55:03;;;;;;;18.65;9.88;;;5.60;52.00;;;;;;5034876;28;20025;-80
2022/12/12 07:57:55;;;;;;;17.35;9.77;;;5.50;52.80;;;;;;5049745;28;20017;-79
2022/12/12 08:00:21;;;;;;;17.45;10.00;;;5.40;52.80;;;;;;4975875;28;20038;-80
2022/12/12 08:02:47;;;;;;;16.90;9.60;;;5.60;52.60;;;;;;4940381;28;20151;-81
2022/12/12 08:05:13;;;;;;;26.58;13.18;;;5.70;52.20;;;;;;4950007;28;20622;-80
2022/12/12 08:07:39;;;;;;;27.38;14.10;;;5.90;52.20;;;;;;4953829;28;20043;-82
2022/12/12 08:10:06;;;;;;;22.40;12.35;;;6.10;51.80;;;;;;4970907;28;20027;-80
2022/12/12 08:12:32;;;;;;;19.08;10.35;;;6.50;50.80;;;;;;4971950;28;20054;-80
2022/12/12 08:14:58;;;;;;;20.63;10.50;;;5.90;51.20;;;;;;4972013;28;20078;-79
2022/12/12 08:17:24;;;;;;;17.77;9.73;;;5.80;51.40;;;;;;4954836;28;20142;-80
2022/12/12 08:19:50;;;;;;;16.95;9.35;;;6.00;51.10;;;;;;4955743;28;20034;-79
2022/12/12 08:22:15;;;;;;;18.00;10.13;;;5.60;50.90;;;;;;4956993;28;20043;-78
2022/12/12 08:24:41;;;;;;;19.40;10.75;;;5.70;51.60;;;;;;4982908;28;20464;-84
2022/12/12 08:27:07;;;;;;;17.85;9.68;;;5.80;51.20;;;;;;4978366;28;20033;-79
2022/12/12 08:29:32;;;;;;;20.02;10.13;;;5.80;51.50;;;;;;4957264;28;20101;-82
2022/12/12 08:31:58;;;;;;;17.73;10.20;;;5.80;51.80;;;;;;4972238;28;20042;-80
2022/12/12 08:34:24;;;;;;;16.15;8.95;;;5.80;50.50;;;;;;4968046;28;20463;-80
2022/12/12 08:36:51;;;;;;;17.52;9.80;;;5.80;52.00;;;;;;4977074;28;20071;-82
2022/12/12 08:39:17;;;;;;;17.58;9.45;;;5.90;52.30;;;;;;5016119;28;20390;-83
2022/12/12 08:41:48;;;;;;;13.98;7.95;;;6.10;51.10;;;;;;5027290;28;20076;-79
2022/12/12 08:44:18;;;;;;;15.63;8.65;;;6.20;50.70;;;;;;5015486;28;20053;-82
2022/12/12 08:46:43;;;;;;;;;;;7.40;49.50;;;;;;5033130;28;20057;-82
2022/12/12 08:49:10;;;;;;;15.65;9.02;;;8.20;48.70;;;;;;5016155;28;19952;-81
2022/12/12 08:51:40;;;;;;;15.32;8.18;;;9.00;46.90;;;;;;5036691;28;20033;-84
2022/12/12 08:54:06;;;;;;;16.45;8.57;;;8.80;46.30;;;;;;5018930;28;20446;-81
2022/12/12 08:56:35;;;;;;;16.35;9.38;;;7.90;47.50;;;;;;5018341;28;20026;-89
2022/12/12 08:59:01;;;;;;;15.65;9.35;;;7.70;47.50;;;;;;5019034;28;20033;-81
2022/12/12 09:01:27;;;;;;;18.13;9.25;;;7.20;48.90;;;;;;5036188;28;20462;-84
2022/12/12 09:03:55;;;;;;;16.25;9.38;;;7.10;49.50;;;;;;5018473;28;20041;-81
2022/12/12 09:06:23;;;;;;;15.48;8.60;;;6.50;49.10;;;;;;5035924;28;20022;-80
2022/12/12 09:08:49;;;;;;;15.75;9.02;;;6.30;50.30;;;;;;5018249;28;20026;-81
2022/12/12 09:11:15;;;;;;;14.95;8.60;;;6.30;50.10;;;;;;5018276;28;20025;-81
2022/12/12 09:13:41;;;;;;;15.35;9.13;;;5.70;50.10;;;;;;5036063;28;20534;-81
2022/12/12 09:16:08;;;;;;;16.40;8.82;;;5.40;52.00;;;;;;5036094;28;20117;-80
2022/12/12 09:18:35;;;;;;;14.90;8.73;;;5.50;51.60;;;;;;5018137;28;20025;-80
2022/12/12 09:21:01;;;;;;;18.17;9.35;;;5.60;52.00;;;;;;5035971;28;20104;-80
2022/12/12 09:23:27;;;;;;;13.85;7.85;;;6.00;51.90;;;;;;5018484;28;20045;-83
2022/12/12 09:25:53;;;;;;;16.08;9.40;;;5.80;50.70;;;;;;5018029;28;20056;-79
2022/12/12 09:28:21;;;;;;;15.25;7.63;;;5.70;52.30;;;;;;5035868;28;20025;-80
2022/12/12 09:30:47;;;;;;;16.13;9.20;;;5.90;51.30;;;;;;5034905;28;20067;-81
2022/12/12 09:33:14;;;;;;;15.77;8.90;;;6.30;50.80;;;;;;5037556;28;20021;-81
2022/12/12 09:35:40;;;;;;;14.77;8.68;;;6.50;50.50;;;;;;5055378;28;20112;-86
2022/12/12 09:38:06;;;;;;;17.48;9.07;;;6.60;50.70;;;;;;5038109;28;20362;-82
2022/12/12 09:41:02;;;;;;;14.30;7.85;;;6.00;50.90;;;;;;5037653;28;20028;-80
2022/12/12 09:43:33;;;;;;;15.10;8.63;;;5.90;50.80;;;;;;5037145;28;20124;-80
2022/12/12 09:46:01;;;;;;;13.90;7.72;;;5.80;52.00;;;;;;5037363;28;20116;-81
2022/12/12 09:48:29;;;;;;;15.52;8.43;;;5.60;51.40;;;;;;5037232;28;20480;-82
2022/12/12 09:50:55;;;;;;;14.43;8.70;;;6.00;51.90;;;;;;5037591;28;20029;-80
2022/12/12 09:53:23;;;;;;;15.52;8.63;;;6.10;50.60;;;;;;5037064;28;20043;-80
2022/12/12 09:56:11;;;;;;;15.13;8.00;;;6.10;50.60;;;;;;5037165;28;20032;-81
2022/12/12 09:59:19;;;;;;;13.63;7.80;;;6.10;51.10;;;;;;5037072;28;20128;-81
2022/12/12 10:02:09;;;;;;;12.85;7.55;;;5.50;51.90;;;;;;5051771;28;20041;-79
2022/12/12 10:04:41;;;;;;;;;;;5.20;53.00;;;;;;5037729;28;20035;-81
2022/12/12 10:07:23;;;;;;;13.73;7.32;;;5.50;52.50;;;;;;5037055;28;19908;-80
2022/12/12 10:10:01;;;;;;;13.98;7.68;;;5.50;52.10;;;;;;5054763;28;20021;-81
2022/12/12 10:12:30;;;;;;;15.00;8.30;;;6.10;52.50;;;;;;5036626;28;20029;-83
2022/12/12 10:15:04;;;;;;;14.55;8.75;;;6.60;50.80;;;;;;5036608;28;20461;-80
2022/12/12 10:17:41;;;;;;;15.52;8.68;;;6.90;50.00;;;;;;5054573;28;20075;-80
2022/12/12 10:20:21;;;;;;;14.02;7.90;;;6.50;51.50;;;;;;5054722;28;20032;-79
2022/12/12 10:23:31;;;;;;;12.52;7.50;;;5.60;51.80;;;;;;5054673;28;20091;-80
2022/12/12 10:26:13;;;;;;;11.90;6.70;;;5.60;53.10;;;;;;5036597;28;20091;-82
2022/12/12 10:28:39;;;;;;;16.90;8.27;;;5.30;52.00;;;;;;5054615;28;20017;-81
2022/12/12 10:31:43;;;;;;;11.38;6.60;;;5.10;52.90;;;;;;5053951;28;20485;-79
2022/12/12 10:34:26;;;;;;;13.43;7.97;;;5.10;52.40;;;;;;5054261;28;20021;-80
2022/12/12 10:37:29;;;;;;;13.40;7.70;;;5.70;52.30;;;;;;5036677;28;20107;-80
2022/12/12 10:40:20;;;;;;;12.35;7.00;;;5.70;52.10;;;;;;5054110;28;20029;-80
2022/12/12 10:42:51;;;;;;;12.80;7.65;;;5.70;51.40;;;;;;5035963;28;20033;-79
2022/12/12 10:45:28;;;;;;;13.18;7.35;;;5.70;52.60;;;;;;5054096;28;20044;-79
2022/12/12 10:47:54;;;;;;;13.65;8.32;;;5.60;52.30;;;;;;5053975;28;20025;-79
2022/12/12 10:50:25;;;;;;;15.43;8.95;;;5.90;52.60;;;;;;5053515;28;20033;-79
2022/12/12 10:52:51;;;;;;;11.68;7.03;;;6.30;51.90;;;;;;5036210;28;20410;-80
2022/12/12 10:55:37;;;;;;;11.18;6.93;;;6.10;52.40;;;;;;5036003;28;20028;-81
2022/12/12 10:58:04;;;;;;;14.10;7.75;;;6.30;50.80;;;;;;5053862;28;20025;-80
2022/12/12 11:00:30;;;;;;;14.05;7.53;;;6.30;51.90;;;;;;5053883;28;20075;-80
2022/12/12 11:02:57;;;;;;;11.82;7.65;;;6.80;51.30;;;;;;5053603;28;20033;-81
2022/12/12 11:05:26;;;;;;;14.98;8.45;;;7.10;50.50;;;;;;5035857;28;20433;-80
2022/12/12 11:08:17;;;;;;;12.43;6.85;;;7.30;50.20;;;;;;5036061;28;20059;-80
2022/12/12 11:10:43;;;;;;;13.70;7.68;;;6.60;50.80;;;;;;5035794;28;20417;-80
2022/12/12 11:13:15;;;;;;;13.00;7.43;;;6.20;52.10;;;;;;5035413;28;20036;-85
2022/12/12 11:15:57;;;;;;;12.38;6.60;;;5.90;52.40;;;;;;5053773;28;20076;-80
2022/12/12 11:18:24;;;;;;;11.63;6.38;;;5.40;53.00;;;;;;5035699;28;20363;-80
2022/12/12 11:21:00;;;;;;;14.50;6.90;;;5.10;52.80;;;;;;5053430;28;20078;-79
2022/12/12 11:23:27;;;;;;;12.77;7.43;;;4.70;53.30;;;;;;5053518;28;20067;-82
2022/12/12 11:25:57;;;;;;;14.88;7.10;;;4.90;54.20;;;;;;5035289;28;20481;-80
2022/12/12 11:28:26;;;;;;;12.10;7.15;;;5.30;54.10;;;;;;5035544;28;20082;-79
2022/12/12 11:30:54;;;;;;;13.88;6.43;;;5.70;52.50;;;;;;5032001;28;20057;-84
2022/12/12 11:33:24;;;;;;;13.43;7.07;;;5.30;53.00;;;;;;5032057;28;20029;-85
2022/12/12 11:35:54;;;;;;;13.23;7.13;;;5.30;54.20;;;;;;5033559;28;20071;-80
2022/12/12 11:38:31;;;;;;;12.98;7.55;;;5.40;54.10;;;;;;5032383;28;20043;-87
2022/12/12 11:41:03;;;;;;;14.68;8.50;;;5.70;53.80;;;;;;5031882;28;20061;-79
2022/12/12 11:43:31;;;;;;;13.32;7.70;;;6.00;53.30;;;;;;5032001;28;20099;-81
2022/12/12 11:46:14;;;;;;;13.40;7.80;;;6.00;52.80;;;;;;5032958;28;20060;-79
2022/12/12 11:48:46;;;;;;;14.02;7.80;;;5.80;54.40;;;;;;5031953;28;20099;-78
2022/12/12 11:51:28;;;;;;;14.07;8.25;;;5.40;55.00;;;;;;5033002;28;20478;-80
2022/12/12 11:53:54;;;;;;;14.07;8.32;;;5.30;56.20;;;;;;5032122;28;20041;-79
2022/12/12 11:56:31;;;;;;;20.92;10.95;;;5.10;56.00;;;;;;5033019;28;20033;-79
2022/12/12 11:59:20;;;;;;;15.45;9.23;;;5.20;56.30;;;;;;5031819;28;20088;-82
2022/12/12 12:02:18;;;;;;;16.13;8.77;;;5.30;56.70;;;;;;5025774;28;20114;-80
2022/12/12 12:05:02;;;;;;;14.82;8.50;;;5.80;56.30;;;;;;5031909;28;20125;-81
2022/12/12 12:07:33;;;;;;;14.80;8.82;;;6.20;54.30;;;;;;5031793;28;20025;-82
2022/12/12 12:10:43;;;;;;;17.08;9.75;;;5.90;55.20;;;;;;5031719;28;20018;-83
2022/12/12 12:13:17;;;;;;;14.63;8.80;;;5.90;55.60;;;;;;4994749;28;20085;-81
2022/12/12 12:16:02;;;;;;;17.95;9.00;;;5.80;55.80;;;;;;5011347;28;20041;-79
2022/12/12 12:18:31;;;;;;;17.45;8.70;;;5.60;56.90;;;;;;4994734;28;20031;-81
2022/12/12 12:21:34;;;;;;;14.80;8.80;;;6.00;56.70;;;;;;5011529;28;20113;-85
2022/12/12 12:24:09;;;;;;;16.52;8.88;;;5.80;56.30;;;;;;4937703;29;20043;-80
2022/12/12 12:26:37;;;;;;;21.42;10.00;;;5.70;57.50;;;;;;4956871;29;20062;-80
2022/12/12 12:29:31;;;;;;;14.80;8.73;;;5.70;57.40;;;;;;4956350;29;20046;-84
2022/12/12 12:32:24;;;;;;;15.20;9.00;;;5.90;57.70;;;;;;4940790;29;20051;-82
2022/12/12 12:35:10;;;;;;;18.17;8.75;;;5.70;57.20;;;;;;4956522;29;20147;-83
2022/12/12 12:37:58;;;;;;;16.23;8.73;;;5.50;58.20;;;;;;4956060;28;20535;-86
2022/12/12 12:40:57;;;;;;;15.05;8.20;;;5.60;58.10;;;;;;4940361;29;20501;-81
2022/12/12 12:43:39;;;;;;;18.17;8.93;;;5.50;59.00;;;;;;4956639;29;20073;-81
2022/12/12 12:46:20;;;;;;;18.80;9.90;;;5.50;58.90;;;;;;4942886;28;20081;-81
2022/12/12 12:49:13;;;;;;;19.83;9.35;;;5.30;59.40;;;;;;4996027;28;20038;-84
2022/12/12 12:51:45;;;;;;;14.43;8.70;;;4.90;60.00;;;;;;4995377;28;20412;-80
2022/12/12 12:54:19;;;;;;;14.95;8.05;;;5.00;60.70;;;;;;4985439;28;20045;-83
2022/12/12 12:56:52;;;;;;;20.85;10.07;;;5.20;60.20;;;;;;5036422;28;20359;-85
2022/12/12 12:59:23;;;;;;;15.18;8.65;;;5.30;60.10;;;;;;5036596;28;20079;-86
2022/12/12 13:01:51;;;;;;;16.60;9.80;;;5.40;60.60;;;;;;5018889;28;20025;-81
2022/12/12 13:04:42;;;;;;;15.27;7.95;;;5.40;61.00;;;;;;5036448;28;20036;-84
2022/12/12 13:07:17;;;;;;;17.35;9.05;;;5.50;61.10;;;;;;5034777;28;20029;-80
2022/12/12 13:10:07;;;;;;;17.77;9.45;;;5.30;60.90;;;;;;5036358;28;20033;-80
2022/12/12 13:12:41;;;;;;;16.38;8.63;;;4.80;62.60;;;;;;5034976;28;20080;-83
2022/12/12 13:15:22;;;;;;;16.52;9.05;;;4.50;63.10;;;;;;5035316;28;20120;-89
2022/12/12 13:18:04;;;;;;;17.17;9.77;;;4.50;63.60;;;;;;5035467;28;20068;-80
2022/12/12 13:20:39;;;;;;;18.35;9.35;;;4.10;64.80;;;;;;5036005;28;20025;-84
2022/12/12 13:23:35;;;;;;;17.70;9.10;;;4.10;65.20;;;;;;5034974;28;20041;-79
2022/12/12 13:26:42;;;;;;;18.58;9.95;;;4.20;64.50;;;;;;5034727;28;20539;-80
2022/12/12 13:29:11;;;;;;;15.48;8.57;;;4.20;63.60;;;;;;5036003;28;20127;-81
2022/12/12 13:32:08;;;;;;;16.77;8.35;;;4.30;63.10;;;;;;5038096;28;20033;-80
2022/12/12 13:34:39;;;;;;;14.90;8.10;;;4.30;62.90;;;;;;5037508;28;20039;-79
2022/12/12 13:37:05;;;;;;;15.55;8.40;;;4.20;62.40;;;;;;5037893;28;20485;-78
2022/12/12 13:39:35;;;;;;;15.98;8.55;;;4.30;63.10;;;;;;5037777;28;20029;-80
2022/12/12 13:42:06;;;;;;;17.13;8.17;;;4.10;66.80;;;;;;5037469;28;20131;-81
2022/12/12 13:44:46;;;;;;;13.32;8.07;;;3.90;67.40;;;;;;5037544;28;20029;-80
2022/12/12 13:47:21;;;;;;;14.50;8.57;;;3.90;64.30;;;;;;5037808;28;20028;-80
2022/12/12 13:49:55;;;;;;;15.23;8.38;;;3.60;64.10;;;;;;5037602;28;20100;-80
2022/12/12 13:52:42;;;;;;;18.10;9.82;;;3.60;64.30;;;;;;5054970;28;20082;-80
2022/12/12 13:55:20;;;;;;;15.60;8.50;;;3.90;64.00;;;;;;5055199;28;20096;-86
2022/12/12 13:58:01;;;;;;;17.60;9.30;;;4.10;64.20;;;;;;5037352;28;20029;-84